createdAt,value
2022-07-30T00:00:47.045Z,3.13
2022-07-30T00:03:13.450Z,3.22
2022-07-30T00:05:39.887Z,2.80
2022-07-30T00:08:06.356Z,3.10
2022-07-30T00:10:32.794Z,3.33
2022-07-30T00:12:59.283Z,2.95
2022-07-30T00:15:25.761Z,3.30
2022-07-30T00:17:52.314Z,3.08
2022-07-30T00:20:18.787Z,2.90
2022-07-30T00:22:45.496Z,2.90
2022-07-30T00:25:11.920Z,2.83
2022-07-30T00:27:38.612Z,3.15
2022-07-30T00:30:05.723Z,2.85
2022-07-30T00:32:32.233Z,2.70
2022-07-30T00:34:58.677Z,3.53
2022-07-30T00:37:25.095Z,3.20
2022-07-30T00:39:51.481Z,2.67
2022-07-30T00:42:25.452Z,2.88
2022-07-30T00:44:55.165Z,2.90
2022-07-30T00:47:21.572Z,3.63
2022-07-30T00:49:47.993Z,3.45
2022-07-30T00:52:14.420Z,2.95
2022-07-30T00:54:40.875Z,3.10
2022-07-30T00:57:07.318Z,2.83
2022-07-30T00:59:34.469Z,3.25
2022-07-30T01:02:01.755Z,3.17
2022-07-30T01:04:28.930Z,3.13
2022-07-30T01:06:55.509Z,3.40
2022-07-30T01:09:21.884Z,2.90
2022-07-30T01:11:48.479Z,3.30
2022-07-30T01:14:15.225Z,3.08
2022-07-30T01:16:43.188Z,2.92
2022-07-30T01:19:41.676Z,2.92
2022-07-30T01:22:18.993Z,2.80
2022-07-30T01:25:05.640Z,3.08
2022-07-30T01:27:36.847Z,3.00
2022-07-30T01:30:05.629Z,3.00
2022-07-30T01:32:36.659Z,3.00
2022-07-30T01:35:06.129Z,3.10
2022-07-30T01:37:34.878Z,3.53
2022-07-30T01:40:01.561Z,3.08
2022-07-30T01:42:29.816Z,3.42
2022-07-30T01:44:58.431Z,3.53
2022-07-30T01:47:25.569Z,3.57
2022-07-30T01:49:54.798Z,3.50
2022-07-30T01:52:23.345Z,3.33
2022-07-30T01:54:52.332Z,2.90
2022-07-30T01:57:20.460Z,3.80
2022-07-30T01:59:50.313Z,3.30
2022-07-30T02:02:18.149Z,3.50
2022-07-30T02:04:44.772Z,3.38
2022-07-30T02:07:19.956Z,3.65
2022-07-30T02:09:58.153Z,3.90
2022-07-30T02:12:29.185Z,3.60
2022-07-30T02:15:14.731Z,3.70
2022-07-30T02:17:56.193Z,4.05
2022-07-30T02:20:28.294Z,3.60
2022-07-30T02:23:00.165Z,3.85
2022-07-30T02:25:29.484Z,3.83
2022-07-30T02:28:00.505Z,3.95
2022-07-30T02:30:31.753Z,3.90
2022-07-30T02:33:03.363Z,3.83
2022-07-30T02:35:31.567Z,4.00
2022-07-30T02:38:00.585Z,3.83
2022-07-30T02:40:28.116Z,3.78
2022-07-30T02:42:54.893Z,4.13
2022-07-30T02:45:23.797Z,3.95
2022-07-30T02:47:56.456Z,3.70
2022-07-30T02:50:24.559Z,3.70
2022-07-30T02:52:53.329Z,3.20
2022-07-30T02:55:20.397Z,4.13
2022-07-30T02:57:47.830Z,4.40
2022-07-30T03:00:14.521Z,4.53
2022-07-30T03:02:43.781Z,4.27
2022-07-30T03:05:11.569Z,3.60
2022-07-30T03:07:39.636Z,4.05
2022-07-30T03:10:07.731Z,3.95
2022-07-30T03:12:35.861Z,3.63
2022-07-30T03:15:02.412Z,3.30
2022-07-30T03:17:32.852Z,3.78
2022-07-30T03:20:01.141Z,4.40
2022-07-30T03:22:32.851Z,4.20
2022-07-30T03:24:59.606Z,3.90
2022-07-30T03:27:26.351Z,3.70
2022-07-30T03:29:54.260Z,4.10
2022-07-30T03:32:25.957Z,4.22
2022-07-30T03:34:54.161Z,4.10
2022-07-30T03:37:21.450Z,4.28
2022-07-30T03:39:48.554Z,3.50
2022-07-30T03:42:15.923Z,4.22
2022-07-30T03:44:45.719Z,4.40
2022-07-30T03:47:13.786Z,3.80
2022-07-30T03:49:40.672Z,5.50
2022-07-30T03:52:08.305Z,4.13
2022-07-30T03:54:35.671Z,4.22
2022-07-30T03:57:04.428Z,3.47
2022-07-30T03:59:31.342Z,4.43
2022-07-30T04:02:07.326Z,4.35
2022-07-30T04:04:34.199Z,3.93
2022-07-30T04:07:00.878Z,4.10
2022-07-30T04:09:27.672Z,4.18
2022-07-30T04:11:54.068Z,4.65
2022-07-30T04:14:20.507Z,4.65
2022-07-30T04:16:54.790Z,4.73
2022-07-30T04:19:34.559Z,3.80
2022-07-30T04:22:03.035Z,4.30
2022-07-30T04:24:31.141Z,4.50
2022-07-30T04:26:59.903Z,4.75
2022-07-30T04:29:27.599Z,4.60
2022-07-30T04:31:54.705Z,4.10
2022-07-30T04:34:21.112Z,5.07
2022-07-30T04:36:47.644Z,4.30
2022-07-30T04:39:14.071Z,4.80
2022-07-30T04:41:48.665Z,4.47
2022-07-30T04:44:16.191Z,5.28
2022-07-30T04:46:42.721Z,5.50
2022-07-30T04:49:10.421Z,4.55
2022-07-30T04:51:38.658Z,5.72
2022-07-30T04:54:08.914Z,5.60
2022-07-30T04:56:53.262Z,5.22
2022-07-30T04:59:23.564Z,5.72
2022-07-30T05:01:51.155Z,5.50
2022-07-30T05:04:18.861Z,6.03
2022-07-30T05:06:46.396Z,5.40
2022-07-30T05:09:16.009Z,5.93
2022-07-30T05:11:42.501Z,6.20
2022-07-30T05:14:08.939Z,6.32
2022-07-30T05:16:35.680Z,6.38
2022-07-30T05:19:02.087Z,6.63
2022-07-30T05:21:34.195Z,6.95
2022-07-30T05:24:00.586Z,7.15
2022-07-30T05:26:27.866Z,6.32
2022-07-30T05:28:55.127Z,6.88
2022-07-30T05:31:23.582Z,6.00
2022-07-30T05:33:52.969Z,5.85
2022-07-30T05:36:20.775Z,6.65
2022-07-30T05:38:48.140Z,5.93
2022-07-30T05:41:31.566Z,5.80
2022-07-30T05:43:59.859Z,5.70
2022-07-30T05:46:26.405Z,5.35
2022-07-30T05:48:53.069Z,5.78
2022-07-30T05:51:20.832Z,5.40
2022-07-30T05:53:47.656Z,5.70
2022-07-30T05:56:14.050Z,4.87
2022-07-30T05:58:40.661Z,4.75
2022-07-30T06:01:07.172Z,5.25
2022-07-30T06:03:34.820Z,4.82
2022-07-30T06:06:05.472Z,4.93
2022-07-30T06:08:32.116Z,4.90
2022-07-30T06:10:58.503Z,4.85
2022-07-30T06:13:24.980Z,5.05
2022-07-30T06:15:51.532Z,4.13
2022-07-30T06:18:18.010Z,4.28
2022-07-30T06:20:45.755Z,4.27
2022-07-30T06:23:12.287Z,3.75
2022-07-30T06:25:39.337Z,4.20
2022-07-30T06:28:27.508Z,4.72
2022-07-30T06:30:53.314Z,4.13
2022-07-30T06:33:19.751Z,3.73
2022-07-30T06:35:46.316Z,4.35
2022-07-30T06:38:12.762Z,4.32
2022-07-30T06:40:39.970Z,3.55
2022-07-30T06:43:06.388Z,3.40
2022-07-30T06:45:32.798Z,3.10
2022-07-30T06:47:59.572Z,3.40
2022-07-30T06:50:26.303Z,3.30
2022-07-30T06:52:53.054Z,2.70
2022-07-30T06:55:19.576Z,2.85
2022-07-30T06:57:45.957Z,2.50
2022-07-30T07:00:12.821Z,2.50
2022-07-30T07:02:39.300Z,2.47
2022-07-30T07:05:07.270Z,2.65
2022-07-30T07:07:42.009Z,2.20
2022-07-30T07:10:11.207Z,2.27
2022-07-30T07:12:37.933Z,2.42
2022-07-30T07:15:05.152Z,2.53
2022-07-30T07:17:31.936Z,2.28
2022-07-30T07:19:59.386Z,2.40
2022-07-30T07:22:27.078Z,2.10
2022-07-30T07:24:53.979Z,2.25
2022-07-30T07:27:20.416Z,2.50
2022-07-30T07:30:01.365Z,2.03
2022-07-30T07:32:32.670Z,1.90
2022-07-30T07:34:59.088Z,1.97
2022-07-30T07:37:25.491Z,2.08
2022-07-30T07:39:51.870Z,2.13
2022-07-30T07:42:18.260Z,2.35
2022-07-30T07:44:44.709Z,2.03
2022-07-30T07:47:11.143Z,1.90
2022-07-30T07:49:37.559Z,1.65
2022-07-30T07:52:04.236Z,1.60
2022-07-30T07:54:30.625Z,2.50
2022-07-30T07:56:57.098Z,1.67
2022-07-30T07:59:23.875Z,1.37
2022-07-30T08:02:03.918Z,1.80
2022-07-30T08:04:30.639Z,2.25
2022-07-30T08:06:57.067Z,1.45
2022-07-30T08:09:23.489Z,1.65
2022-07-30T08:11:49.937Z,1.60
2022-07-30T08:14:16.412Z,1.58
2022-07-30T08:16:42.901Z,2.30
2022-07-30T08:19:09.965Z,1.58
2022-07-30T08:21:36.385Z,1.70
2022-07-30T08:24:02.764Z,1.57
2022-07-30T08:26:29.144Z,1.50
2022-07-30T08:28:55.576Z,1.60
2022-07-30T08:31:21.976Z,1.60
2022-07-30T08:33:48.390Z,1.90
2022-07-30T08:36:14.852Z,1.63
2022-07-30T08:38:41.239Z,1.27
2022-07-30T08:41:07.823Z,1.70
2022-07-30T08:43:35.830Z,1.80
2022-07-30T08:46:04.333Z,1.77
2022-07-30T08:48:30.965Z,1.63
2022-07-30T08:50:57.864Z,1.48
2022-07-30T08:53:25.237Z,1.58
2022-07-30T08:55:54.564Z,1.25
2022-07-30T08:58:35.844Z,1.13
2022-07-30T09:01:03.726Z,1.37
2022-07-30T09:03:30.390Z,1.35
2022-07-30T09:05:56.809Z,1.40
2022-07-30T09:08:23.349Z,1.20
2022-07-30T09:10:53.265Z,1.17
2022-07-30T09:13:28.409Z,1.10
2022-07-30T09:15:56.055Z,0.93
2022-07-30T09:18:34.281Z,1.50
2022-07-30T09:21:13.351Z,1.33
2022-07-30T09:23:39.795Z,1.40
2022-07-30T09:26:06.193Z,1.27
2022-07-30T09:28:34.389Z,1.60
2022-07-30T09:31:01.005Z,1.52
2022-07-30T09:33:42.499Z,1.20
2022-07-30T09:36:12.238Z,1.38
2022-07-30T09:38:52.876Z,1.27
2022-07-30T09:41:38.884Z,1.00
2022-07-30T09:44:06.423Z,1.27
2022-07-30T09:46:45.410Z,1.48
2022-07-30T09:49:19.838Z,1.80
2022-07-30T09:51:54.757Z,1.23
2022-07-30T09:54:24.083Z,1.52
2022-07-30T09:57:26.353Z,1.77
2022-07-30T09:59:55.249Z,1.48
2022-07-30T10:02:32.229Z,1.42
2022-07-30T10:05:21.827Z,1.50
2022-07-30T10:07:52.614Z,1.50
2022-07-30T10:10:26.555Z,1.48
2022-07-30T10:12:59.143Z,1.83
2022-07-30T10:15:30.343Z,1.30
2022-07-30T10:17:59.889Z,1.17
2022-07-30T10:20:27.646Z,1.58
2022-07-30T10:22:55.220Z,1.45
2022-07-30T10:25:28.070Z,1.45
2022-07-30T10:27:57.150Z,1.63
2022-07-30T10:30:28.263Z,1.63
2022-07-30T10:32:57.374Z,1.50
2022-07-30T10:35:31.285Z,1.83
2022-07-30T10:38:08.364Z,1.10
2022-07-30T10:40:40.508Z,1.35
2022-07-30T10:43:33.184Z,1.40
2022-07-30T10:46:09.299Z,1.50
2022-07-30T10:48:46.848Z,1.42
2022-07-30T10:51:13.352Z,1.35
2022-07-30T10:53:52.110Z,1.50
2022-07-30T10:56:25.643Z,1.37
2022-07-30T10:59:09.936Z,1.17
2022-07-30T11:02:09.229Z,1.75
2022-07-30T11:04:36.784Z,1.45
2022-07-30T11:07:28.047Z,1.50
2022-07-30T11:10:09.400Z,1.30
2022-07-30T11:12:43.893Z,1.25
2022-07-30T11:15:19.124Z,1.52
2022-07-30T11:18:12.399Z,1.50
2022-07-30T11:20:43.121Z,1.65
2022-07-30T11:23:24.680Z,1.60
2022-07-30T11:25:54.953Z,1.05
2022-07-30T11:28:36.890Z,1.65
2022-07-30T11:31:10.014Z,1.25
2022-07-30T11:33:37.128Z,1.80
2022-07-30T11:36:10.460Z,1.40
2022-07-30T11:38:57.991Z,1.63
2022-07-30T11:41:27.747Z,1.45
2022-07-30T11:44:27.361Z,1.17
2022-07-30T11:46:54.131Z,1.30
2022-07-30T11:49:20.715Z,1.57
2022-07-30T11:51:56.291Z,1.58
2022-07-30T11:54:22.839Z,1.80
2022-07-30T11:56:51.421Z,1.60
2022-07-30T11:59:17.795Z,1.63
2022-07-30T12:01:48.910Z,1.63
2022-07-30T12:04:15.452Z,1.40
2022-07-30T12:06:46.668Z,1.38
2022-07-30T12:09:20.992Z,1.30
2022-07-30T12:11:47.574Z,1.30
2022-07-30T12:14:14.087Z,1.47
2022-07-30T12:16:48.529Z,1.40
2022-07-30T12:19:14.964Z,1.50
2022-07-30T12:21:41.444Z,1.65
2022-07-30T12:24:09.789Z,1.25
2022-07-30T12:26:36.244Z,1.50
2022-07-30T12:29:10.480Z,1.38
2022-07-30T12:31:38.492Z,1.50
2022-07-30T12:34:27.611Z,1.27
2022-07-30T12:36:54.767Z,1.45
2022-07-30T12:39:24.330Z,1.20
2022-07-30T12:41:53.265Z,1.52
2022-07-30T12:44:35.137Z,1.20
2022-07-30T12:47:03.007Z,1.30
2022-07-30T12:49:39.381Z,1.20
2022-07-30T12:52:35.776Z,1.20
2022-07-30T12:55:06.721Z,1.13
2022-07-30T12:57:52.173Z,1.33
2022-07-30T13:00:19.190Z,1.17
2022-07-30T13:02:45.677Z,1.48
2022-07-30T13:05:12.373Z,1.10
2022-07-30T13:07:59.621Z,1.08
2022-07-30T13:10:30.739Z,1.40
2022-07-30T13:12:58.339Z,1.10
2022-07-30T13:15:28.021Z,1.05
2022-07-30T13:17:54.505Z,1.07
2022-07-30T13:20:21.977Z,1.20
2022-07-30T13:22:48.504Z,1.20
2022-07-30T13:25:14.901Z,1.40
2022-07-30T13:27:41.359Z,1.30
2022-07-30T13:30:08.502Z,1.00
2022-07-30T13:32:35.317Z,1.17
2022-07-30T13:35:02.253Z,1.40
2022-07-30T13:37:37.729Z,1.10
2022-07-30T13:40:05.904Z,1.58
2022-07-30T13:42:32.426Z,1.40
2022-07-30T13:44:58.845Z,0.80
2022-07-30T13:47:25.244Z,1.40
2022-07-30T13:49:51.712Z,1.30
2022-07-30T13:52:18.131Z,1.50
2022-07-30T13:54:45.076Z,1.10
2022-07-30T13:57:11.936Z,1.15
2022-07-30T13:59:38.315Z,1.30
2022-07-30T14:02:04.921Z,1.05
2022-07-30T14:04:31.557Z,1.25
2022-07-30T14:06:57.987Z,1.07
2022-07-30T14:09:24.430Z,1.30
2022-07-30T14:11:51.267Z,1.45
2022-07-30T14:14:18.460Z,1.20
2022-07-30T14:16:46.907Z,1.30
2022-07-30T14:19:23.921Z,1.30
2022-07-30T14:21:52.769Z,1.40
2022-07-30T14:24:19.924Z,1.30
2022-07-30T14:26:46.335Z,1.17
2022-07-30T14:29:12.890Z,1.58
2022-07-30T14:31:40.582Z,1.90
2022-07-30T14:34:07.013Z,1.30
2022-07-30T14:36:33.576Z,1.30
2022-07-30T14:39:01.908Z,1.50
2022-07-30T14:41:28.506Z,1.42
2022-07-30T14:43:55.012Z,1.30
2022-07-30T14:46:21.411Z,1.33
2022-07-30T14:48:47.883Z,1.58
2022-07-30T14:51:21.707Z,1.40
2022-07-30T14:53:50.716Z,1.23
2022-07-30T14:56:17.574Z,1.30
2022-07-30T14:58:44.389Z,1.83
2022-07-30T15:01:15.568Z,1.30
2022-07-30T15:03:43.773Z,1.00
2022-07-30T15:06:12.537Z,1.27
2022-07-30T15:08:39.190Z,1.87
2022-07-30T15:11:07.836Z,1.40
2022-07-30T15:13:34.803Z,1.25
2022-07-30T15:16:02.940Z,1.40
2022-07-30T15:18:29.353Z,1.40
2022-07-30T15:20:56.409Z,1.60
2022-07-30T15:23:23.029Z,1.40
2022-07-30T15:25:49.466Z,1.50
2022-07-30T15:28:15.989Z,1.10
2022-07-30T15:30:42.636Z,1.60
2022-07-30T15:33:09.401Z,1.37
2022-07-30T15:35:36.735Z,1.65
2022-07-30T15:38:03.809Z,1.42
2022-07-30T15:40:30.545Z,1.40
2022-07-30T15:42:56.977Z,1.30
2022-07-30T15:45:24.640Z,1.67
2022-07-30T15:47:51.149Z,1.00
2022-07-30T15:50:17.926Z,1.35
2022-07-30T15:52:45.063Z,1.42
2022-07-30T15:55:12.091Z,1.83
2022-07-30T15:57:38.480Z,2.53
2022-07-30T16:00:07.930Z,1.70
2022-07-30T16:02:34.714Z,1.40
2022-07-30T16:05:01.926Z,1.77
2022-07-30T16:07:28.408Z,1.90
2022-07-30T16:09:54.800Z,1.93
2022-07-30T16:12:21.227Z,1.80
2022-07-30T16:14:47.881Z,2.10
2022-07-30T16:17:14.969Z,1.40
2022-07-30T16:19:45.074Z,2.00
2022-07-30T16:22:12.127Z,2.23
2022-07-30T16:24:41.894Z,1.73
2022-07-30T16:27:10.076Z,1.90
2022-07-30T16:29:36.507Z,1.70
2022-07-30T16:32:03.398Z,1.73
2022-07-30T16:34:30.097Z,1.40
2022-07-30T16:36:56.527Z,1.65
2022-07-30T16:39:22.910Z,2.05
2022-07-30T16:41:49.604Z,1.42
2022-07-30T16:44:15.989Z,1.70
2022-07-30T16:46:42.381Z,1.40
2022-07-30T16:49:09.097Z,1.50
2022-07-30T16:51:35.606Z,1.88
2022-07-30T16:54:02.425Z,1.77
2022-07-30T16:56:28.942Z,1.80
2022-07-30T16:58:55.368Z,1.73
2022-07-30T17:01:21.805Z,2.00
2022-07-30T17:03:48.296Z,1.70
2022-07-30T17:06:14.671Z,1.77
2022-07-30T17:08:41.208Z,1.60
2022-07-30T17:11:09.049Z,2.10
2022-07-30T17:13:37.564Z,2.30
2022-07-30T17:16:04.214Z,1.88
2022-07-30T17:18:30.595Z,1.52
2022-07-30T17:20:57.089Z,1.80
2022-07-30T17:23:23.561Z,2.70
2022-07-30T17:25:50.441Z,2.97
2022-07-30T17:28:19.462Z,2.78
2022-07-30T17:30:50.927Z,2.50
2022-07-30T17:33:17.317Z,2.88
2022-07-30T17:35:43.701Z,2.07
2022-07-30T17:38:10.197Z,2.10
2022-07-30T17:40:36.984Z,2.00
2022-07-30T17:43:04.346Z,2.03
2022-07-30T17:45:32.967Z,1.90
2022-07-30T17:48:01.441Z,2.27
2022-07-30T17:50:28.460Z,1.90
2022-07-30T17:52:54.899Z,1.90
2022-07-30T17:55:22.368Z,1.70
2022-07-30T17:57:48.871Z,1.73
2022-07-30T18:00:15.788Z,1.53
2022-07-30T18:02:42.159Z,1.42
2022-07-30T18:05:10.523Z,1.98
2022-07-30T18:07:37.269Z,1.67
2022-07-30T18:10:04.312Z,2.03
2022-07-30T18:12:30.925Z,2.00
2022-07-30T18:14:58.903Z,2.15
2022-07-30T18:17:25.436Z,2.20
2022-07-30T18:19:51.928Z,2.17
2022-07-30T18:22:28.222Z,1.85
2022-07-30T18:24:56.028Z,1.50
2022-07-30T18:27:22.407Z,1.65
2022-07-30T18:29:48.848Z,1.50
2022-07-30T18:32:15.342Z,1.60
2022-07-30T18:34:41.723Z,1.10
2022-07-30T18:37:08.122Z,1.80
2022-07-30T18:39:34.705Z,1.52
2022-07-30T18:42:02.431Z,1.48
2022-07-30T18:44:29.135Z,1.95
2022-07-30T18:46:55.569Z,1.70
2022-07-30T18:49:35.971Z,1.47
2022-07-30T18:52:04.361Z,1.63
2022-07-30T18:54:31.005Z,1.67
2022-07-30T18:56:57.536Z,1.80
2022-07-30T18:59:23.981Z,2.00
2022-07-30T19:01:50.705Z,1.70
2022-07-30T19:04:17.295Z,1.63
2022-07-30T19:06:44.048Z,1.70
2022-07-30T19:09:17.256Z,1.85
2022-07-30T19:11:44.975Z,1.40
2022-07-30T19:14:13.074Z,1.40
2022-07-30T19:16:40.163Z,1.50
2022-07-30T19:19:06.569Z,1.63
2022-07-30T19:21:33.121Z,1.38
2022-07-30T19:23:59.592Z,1.85
2022-07-30T19:26:26.058Z,1.70
2022-07-30T19:28:52.437Z,1.60
2022-07-30T19:31:19.226Z,2.05
2022-07-30T19:33:45.710Z,1.80
2022-07-30T19:36:12.936Z,1.75
2022-07-30T19:38:42.011Z,1.80
2022-07-30T19:41:08.779Z,2.00
2022-07-30T19:43:35.240Z,2.00
2022-07-30T19:46:03.651Z,2.03
2022-07-30T19:48:31.900Z,1.95
2022-07-30T19:51:00.775Z,2.30
2022-07-30T19:53:31.633Z,2.65
2022-07-30T19:56:08.344Z,2.63
2022-07-30T19:58:37.464Z,2.20
2022-07-30T20:01:08.436Z,2.47
2022-07-30T20:03:35.870Z,2.53
2022-07-30T20:06:03.730Z,2.65
2022-07-30T20:08:30.155Z,2.55
2022-07-30T20:10:57.391Z,2.17
2022-07-30T20:13:25.308Z,2.28
2022-07-30T20:16:14.294Z,2.33
2022-07-30T20:18:42.764Z,2.22
2022-07-30T20:21:14.622Z,2.72
2022-07-30T20:23:42.243Z,2.70
2022-07-30T20:26:13.405Z,2.63
2022-07-30T20:28:41.044Z,2.40
2022-07-30T20:31:08.229Z,2.65
2022-07-30T20:33:37.901Z,2.78
2022-07-30T20:36:05.766Z,3.05
2022-07-30T20:38:37.586Z,3.70
2022-07-30T20:41:10.029Z,3.40
2022-07-30T20:43:46.237Z,4.03
2022-07-30T20:46:19.417Z,3.42
2022-07-30T20:48:46.007Z,3.78
2022-07-30T20:51:12.543Z,4.20
2022-07-30T20:53:40.183Z,4.60
2022-07-30T20:56:06.561Z,4.40
2022-07-30T20:58:34.325Z,5.05
2022-07-30T21:01:00.855Z,5.07
2022-07-30T21:03:31.611Z,4.30
2022-07-30T21:05:58.633Z,4.07
2022-07-30T21:08:26.497Z,4.20
2022-07-30T21:10:53.368Z,4.40
2022-07-30T21:13:22.244Z,3.58
2022-07-30T21:16:02.402Z,3.90
2022-07-30T21:18:29.766Z,3.70
2022-07-30T21:20:57.283Z,3.97
2022-07-30T21:23:23.975Z,4.05
2022-07-30T21:26:00.669Z,3.78
2022-07-30T21:28:30.057Z,3.72
2022-07-30T21:31:02.605Z,4.00
2022-07-30T21:36:15.444Z,4.07
2022-07-30T21:38:42.777Z,4.10
2022-07-30T21:41:14.422Z,4.68
2022-07-30T21:43:42.745Z,4.00
2022-07-30T21:46:10.575Z,4.30
2022-07-30T21:48:37.021Z,3.88
2022-07-30T21:51:04.011Z,4.10
2022-07-30T21:56:17.056Z,3.37
2022-07-30T21:58:44.984Z,3.40
2022-07-30T22:01:17.095Z,3.30
2022-07-30T22:04:03.494Z,3.13
2022-07-30T22:06:36.584Z,3.30
2022-07-30T22:09:19.290Z,3.37
2022-07-30T22:11:52.520Z,2.80
2022-07-30T22:14:18.947Z,2.95
2022-07-30T22:16:46.408Z,2.60
2022-07-30T22:19:14.397Z,3.15
2022-07-30T22:21:41.668Z,2.70
2022-07-30T22:24:08.309Z,2.97
2022-07-30T22:26:34.705Z,2.75
2022-07-30T22:29:01.102Z,2.90
2022-07-30T22:31:28.096Z,2.95
2022-07-30T22:34:05.825Z,2.70
2022-07-30T22:36:37.884Z,2.72
2022-07-30T22:39:04.367Z,3.10
2022-07-30T22:41:35.462Z,3.20
2022-07-30T22:44:01.917Z,3.10
2022-07-30T22:46:30.900Z,2.77
2022-07-30T22:48:59.286Z,2.75
2022-07-30T22:51:25.993Z,3.00
2022-07-30T22:54:12.781Z,3.55
2022-07-30T22:56:39.698Z,3.55
2022-07-30T22:59:06.514Z,3.80
2022-07-30T23:01:32.948Z,3.65
2022-07-30T23:03:59.396Z,3.35
2022-07-30T23:06:28.003Z,2.67
2022-07-30T23:08:56.765Z,3.13
2022-07-30T23:11:23.213Z,2.90
2022-07-30T23:12:32.162Z,3.53
2022-07-30T23:12:32.893Z,3.80
2022-07-30T23:13:49.688Z,3.00
2022-07-30T23:16:16.167Z,3.42
2022-07-30T23:18:42.596Z,3.67
2022-07-30T23:21:09.858Z,3.63
2022-07-30T23:23:36.405Z,3.10
2022-07-30T23:26:06.507Z,3.20
2022-07-30T23:28:32.925Z,3.65
2022-07-30T23:30:59.369Z,3.40
2022-07-30T23:33:25.765Z,3.50
2022-07-30T23:35:52.253Z,3.17
2022-07-30T23:38:18.687Z,3.10
2022-07-30T23:40:45.074Z,3.03
2022-07-30T23:43:11.445Z,3.60
2022-07-30T23:45:37.891Z,3.42
2022-07-30T23:48:05.588Z,3.10
2022-07-30T23:50:32.902Z,3.33
2022-07-30T23:53:00.364Z,3.30
2022-07-30T23:55:27.174Z,3.10
2022-07-30T23:57:53.698Z,3.50
